Avera, Georgia
Current Conditions -  °F | °C
As of 11:35 AM on Tuesday 21 Oct 2014 (Local Time) from KOKZ Reporting Station
Clear Clear  
Wind Chill: 20°   Ceiling: Unl
Heat Index: 20°   Visibility: 10mi
Dew Point: 12°   Wind: 7mph
Humidity: 58%   Direction: 310°NW
Pressure: 30.03"   Gusts: NA
Location:  33.19°N, 82.53°W
Report Text: KOKZ 211535Z AUTO 31006KT 10SM CLR 21/12 A3003 RMK AO2 T02050119
Loading
Personal Weather Stations






























Interactive Weather Map
Tropical Storm Tracking
New forecast layout! Learn more

10-Day Weather Forecast

Advertisements
Track Severe Weather on mobile